createdAt,value
2023-03-11T00:02:41.617Z,55.88
2023-03-11T00:05:45.416Z,55.06
2023-03-11T00:08:47.923Z,55.27
2023-03-11T00:11:50.661Z,55.98
2023-03-11T00:14:53.372Z,55.08
2023-03-11T00:17:56.273Z,54.94
2023-03-11T00:21:00.186Z,55.47
2023-03-11T00:24:03.747Z,55.64
2023-03-11T00:27:06.978Z,55.53
2023-03-11T00:30:11.168Z,55.34
2023-03-11T00:33:15.810Z,54.57
2023-03-11T00:36:24.482Z,54.71
2023-03-11T00:39:27.345Z,54.55
2023-03-11T00:42:30.028Z,53.74
2023-03-11T00:45:33.847Z,54.08
2023-03-11T00:48:36.576Z,53.38
2023-03-11T00:51:39.297Z,53.19
2023-03-11T00:54:41.864Z,52.69
2023-03-11T00:57:45.196Z,52.02
2023-03-11T01:00:48.544Z,52.48
2023-03-11T01:03:51.296Z,52.85
2023-03-11T01:06:54.003Z,52.93
2023-03-11T01:09:56.894Z,53.06
2023-03-11T01:12:59.802Z,53.11
2023-03-11T01:16:03.563Z,53.55
2023-03-11T01:19:07.259Z,54.04
2023-03-11T01:22:10.228Z,54.47
2023-03-11T01:25:17.968Z,54.63
2023-03-11T01:28:21.109Z,54.56
2023-03-11T01:31:23.684Z,54.23
2023-03-11T01:34:27.458Z,53.57
2023-03-11T01:37:30.332Z,53.98
2023-03-11T01:40:35.854Z,54.01
2023-03-11T01:43:44.748Z,53.84
2023-03-11T01:46:59.792Z,53.65
2023-03-11T01:50:12.723Z,53.65
2023-03-11T01:53:17.554Z,52.74
2023-03-11T01:56:21.156Z,52.26
2023-03-11T01:59:29.039Z,51.78
2023-03-11T02:02:41.947Z,52.59
2023-03-11T02:05:45.742Z,52.67
2023-03-11T02:08:49.530Z,52.17
2023-03-11T02:11:53.473Z,51.73
2023-03-11T02:14:56.995Z,51.40
2023-03-11T02:18:03.234Z,50.73
2023-03-11T02:21:32.094Z,49.87
2023-03-11T02:24:42.250Z,50.24
2023-03-11T02:27:48.929Z,50.03
2023-03-11T02:30:53.782Z,48.66
2023-03-11T02:34:00.386Z,48.93
2023-03-11T02:37:08.611Z,48.85
2023-03-11T02:40:35.309Z,48.84
2023-03-11T02:43:43.921Z,48.82
2023-03-11T02:46:50.729Z,49.20
2023-03-11T02:49:56.283Z,48.80
2023-03-11T02:52:59.249Z,48.52
2023-03-11T02:56:02.054Z,48.87
2023-03-11T02:59:05.712Z,48.83
2023-03-11T03:02:08.606Z,48.52
2023-03-11T03:05:12.421Z,48.37
2023-03-11T03:08:15.204Z,47.91
2023-03-11T03:11:17.980Z,47.27
2023-03-11T03:14:22.212Z,46.47
2023-03-11T03:17:25.615Z,46.71
2023-03-11T03:20:28.328Z,46.50
2023-03-11T03:23:37.678Z,46.13
2023-03-11T03:26:40.569Z,45.83
2023-03-11T03:29:44.096Z,45.56
2023-03-11T03:32:47.468Z,45.06
2023-03-11T03:35:52.431Z,45.34
2023-03-11T03:39:02.672Z,45.23
2023-03-11T03:42:09.371Z,43.90
2023-03-11T03:45:15.619Z,42.73
2023-03-11T03:48:19.658Z,41.85
2023-03-11T03:51:23.788Z,41.47
2023-03-11T03:54:49.079Z,40.68
2023-03-11T03:57:51.736Z,41.32
2023-03-11T04:00:57.448Z,40.96
2023-03-11T04:04:00.203Z,41.28
2023-03-11T04:07:05.772Z,41.63
2023-03-11T04:10:09.854Z,41.94
2023-03-11T04:13:13.404Z,41.85
2023-03-11T04:16:20.381Z,41.78
2023-03-11T04:19:26.378Z,42.44
2023-03-11T04:22:29.219Z,43.03
2023-03-11T04:25:32.135Z,42.54
2023-03-11T04:28:34.799Z,43.11
2023-03-11T04:31:37.800Z,43.19
2023-03-11T04:34:42.153Z,43.51
2023-03-11T04:37:45.750Z,43.60
2023-03-11T04:40:48.567Z,42.12
2023-03-11T04:43:51.678Z,41.42
2023-03-11T04:46:54.383Z,39.43
2023-03-11T04:49:57.121Z,36.09
2023-03-11T04:53:00.371Z,34.92
2023-03-11T04:56:03.233Z,34.15
2023-03-11T04:59:06.262Z,34.21
2023-03-11T05:02:12.936Z,34.33
2023-03-11T05:05:20.927Z,34.83
2023-03-11T05:08:24.229Z,35.77
2023-03-11T05:11:27.061Z,35.81
2023-03-11T05:14:29.880Z,36.37
2023-03-11T05:17:33.298Z,37.24
2023-03-11T05:20:37.149Z,37.66
2023-03-11T05:23:40.117Z,37.48
2023-03-11T05:26:42.984Z,37.86
2023-03-11T05:29:45.676Z,37.73
2023-03-11T05:32:49.011Z,38.66
2023-03-11T05:35:52.843Z,38.73
2023-03-11T05:38:56.795Z,38.60
2023-03-11T05:41:59.654Z,38.66
2023-03-11T05:45:03.646Z,39.24
2023-03-11T05:48:08.325Z,38.39
2023-03-11T05:51:13.943Z,39.36
2023-03-11T05:54:18.050Z,39.04
2023-03-11T05:57:23.358Z,39.38
2023-03-11T06:00:29.592Z,39.67
2023-03-11T06:03:34.776Z,39.35
2023-03-11T06:06:40.610Z,39.02
2023-03-11T06:09:43.561Z,38.11
2023-03-11T06:12:50.525Z,37.30
2023-03-11T06:16:06.018Z,37.06
2023-03-11T06:19:09.133Z,37.40
2023-03-11T06:22:16.830Z,37.40
2023-03-11T06:25:19.925Z,37.26
2023-03-11T06:28:23.574Z,37.48
2023-03-11T06:31:29.113Z,37.55
2023-03-11T06:34:38.012Z,37.51
2023-03-11T06:37:42.006Z,37.54
2023-03-11T06:40:45.154Z,37.65
2023-03-11T06:43:47.889Z,37.61
2023-03-11T06:46:51.115Z,36.97
2023-03-11T06:49:54.613Z,36.55
2023-03-11T06:52:57.590Z,36.13
2023-03-11T06:56:03.231Z,37.00
2023-03-11T06:59:09.410Z,37.30
2023-03-11T07:02:14.232Z,36.91
2023-03-11T07:05:18.512Z,37.35
2023-03-11T07:08:23.199Z,36.10
2023-03-11T07:11:27.874Z,36.11
2023-03-11T07:14:37.557Z,36.57
2023-03-11T07:17:40.228Z,36.27
2023-03-11T07:20:46.008Z,36.31
2023-03-11T07:23:52.820Z,35.56
2023-03-11T07:27:16.656Z,35.57
2023-03-11T07:30:20.616Z,36.15
2023-03-11T07:33:26.812Z,36.08
2023-03-11T07:36:30.524Z,36.74
2023-03-11T07:39:33.276Z,36.40
2023-03-11T07:42:35.916Z,36.46
2023-03-11T07:45:38.601Z,36.18
2023-03-11T07:48:41.232Z,35.86
2023-03-11T07:51:44.875Z,35.32
2023-03-11T07:54:47.518Z,35.34
2023-03-11T07:57:51.701Z,35.38
2023-03-11T08:00:56.507Z,35.07
2023-03-11T08:03:59.472Z,34.50
2023-03-11T08:07:02.073Z,34.23
2023-03-11T08:10:04.966Z,34.20
2023-03-11T08:13:08.147Z,34.36
2023-03-11T08:16:14.178Z,32.97
2023-03-11T08:19:16.896Z,32.17
2023-03-11T08:22:19.444Z,31.84
2023-03-11T08:25:22.067Z,31.65
2023-03-11T08:28:24.865Z,31.72
2023-03-11T08:31:30.448Z,30.62
2023-03-11T08:34:35.181Z,29.76
2023-03-11T08:37:38.222Z,29.78
2023-03-11T08:40:41.209Z,29.13
2023-03-11T08:43:44.667Z,28.74
2023-03-11T08:46:47.774Z,28.03
2023-03-11T08:49:50.475Z,26.81
2023-03-11T08:52:53.204Z,21.16
2023-03-11T08:55:55.798Z,22.07
2023-03-11T08:58:58.560Z,21.04
2023-03-11T09:02:01.307Z,20.42
2023-03-11T09:05:04.195Z,19.80
2023-03-11T09:08:07.076Z,17.46
2023-03-11T09:11:10.064Z,17.80
2023-03-11T09:14:12.758Z,18.78
2023-03-11T09:17:15.681Z,21.11
2023-03-11T09:20:18.613Z,23.02
2023-03-11T09:23:21.325Z,20.22
2023-03-11T09:26:24.290Z,18.48
2023-03-11T09:29:26.898Z,23.00
2023-03-11T09:32:29.625Z,26.22
2023-03-11T09:35:32.740Z,28.15
2023-03-11T09:38:35.444Z,29.44
2023-03-11T09:41:58.908Z,30.26
2023-03-11T09:45:15.637Z,31.00
2023-03-11T09:48:34.157Z,32.08
2023-03-11T09:51:39.174Z,32.75
2023-03-11T09:54:51.234Z,32.68
2023-03-11T09:57:56.956Z,32.04
2023-03-11T10:01:01.003Z,31.49
2023-03-11T10:04:17.993Z,30.47
2023-03-11T10:07:28.416Z,30.83
2023-03-11T10:10:39.844Z,31.83
2023-03-11T10:14:09.302Z,32.17
2023-03-11T10:17:29.880Z,33.33
2023-03-11T10:20:38.499Z,33.31
2023-03-11T10:23:57.081Z,33.81
2023-03-11T10:27:08.587Z,34.33
2023-03-11T10:30:19.322Z,34.87
2023-03-11T10:33:29.177Z,35.39
2023-03-11T10:36:42.974Z,35.83
2023-03-11T10:39:48.577Z,36.00
2023-03-11T10:42:54.166Z,35.99
2023-03-11T10:45:56.947Z,35.72
2023-03-11T10:48:59.529Z,35.27
2023-03-11T10:52:04.145Z,35.02
2023-03-11T10:55:07.770Z,34.73
2023-03-11T10:58:14.082Z,34.18
2023-03-11T11:01:18.752Z,26.99
2023-03-11T11:04:37.073Z,20.87
2023-03-11T11:07:42.621Z,18.93
2023-03-11T11:10:53.799Z,16.52
2023-03-11T11:13:58.268Z,14.35
2023-03-11T11:17:00.909Z,14.66
2023-03-11T11:20:13.616Z,19.67
2023-03-11T11:23:26.992Z,23.97
2023-03-11T11:26:29.624Z,24.82
2023-03-11T11:29:32.632Z,26.47
2023-03-11T11:32:36.537Z,27.92
2023-03-11T11:35:50.510Z,29.67
2023-03-11T11:38:54.672Z,27.24
2023-03-11T11:41:57.750Z,30.12
2023-03-11T11:45:19.294Z,31.30
2023-03-11T11:48:33.683Z,32.39
2023-03-11T11:51:42.940Z,32.67
2023-03-11T11:55:01.447Z,32.02
2023-03-11T11:58:10.061Z,31.95
2023-03-11T12:01:21.004Z,30.45
2023-03-11T12:04:46.400Z,31.68
2023-03-11T12:08:18.183Z,31.13
2023-03-11T12:11:32.805Z,28.89
2023-03-11T12:14:50.137Z,29.19
2023-03-11T12:18:01.004Z,29.23
2023-03-11T12:21:23.838Z,18.66
2023-03-11T12:24:49.817Z,16.31
2023-03-11T12:28:14.385Z,11.89
2023-03-11T12:31:17.462Z,12.37
2023-03-11T12:34:22.167Z,16.31
2023-03-11T12:37:24.921Z,17.95
2023-03-11T12:40:42.954Z,21.35
2023-03-11T12:43:46.320Z,22.31
2023-03-11T12:46:54.881Z,24.29
2023-03-11T12:50:34.840Z,25.31
2023-03-11T12:53:47.451Z,28.26
2023-03-11T12:56:56.659Z,30.16
2023-03-11T13:00:45.797Z,30.61
2023-03-11T13:04:19.628Z,31.33
2023-03-11T13:07:22.529Z,28.24
2023-03-11T13:10:45.348Z,29.12
2023-03-11T13:13:48.112Z,30.74
2023-03-11T13:16:50.982Z,28.91
2023-03-11T13:19:58.746Z,24.37
2023-03-11T13:23:01.361Z,27.76
2023-03-11T13:26:11.797Z,29.50
2023-03-11T13:29:47.929Z,30.82
2023-03-11T13:33:09.196Z,30.87
2023-03-11T13:36:32.435Z,30.60
2023-03-11T13:39:46.558Z,31.89
2023-03-11T13:42:52.278Z,31.96
2023-03-11T13:46:21.199Z,32.22
2023-03-11T13:49:36.175Z,32.62
2023-03-11T13:52:53.709Z,33.21
2023-03-11T13:55:56.873Z,32.01
2023-03-11T13:59:16.998Z,30.58
2023-03-11T14:02:23.088Z,30.34
2023-03-11T14:05:30.875Z,32.04
2023-03-11T14:08:35.628Z,32.19
2023-03-11T14:11:40.162Z,32.82
2023-03-11T14:14:53.569Z,32.22
2023-03-11T14:18:25.610Z,29.69
2023-03-11T14:21:28.404Z,29.49
2023-03-11T14:24:32.185Z,30.26
2023-03-11T14:27:35.539Z,31.47
2023-03-11T14:30:39.663Z,33.15
2023-03-11T14:33:42.418Z,34.18
2023-03-11T14:36:57.494Z,34.13
2023-03-11T14:40:00.739Z,34.93
2023-03-11T14:43:08.372Z,34.29
2023-03-11T14:46:18.564Z,34.40
2023-03-11T14:49:25.339Z,32.48
2023-03-11T14:52:52.337Z,31.79
2023-03-11T14:56:02.008Z,30.39
2023-03-11T14:59:18.793Z,30.37
2023-03-11T15:02:48.964Z,31.49
2023-03-11T15:06:12.216Z,31.26
2023-03-11T15:09:21.088Z,32.36
2023-03-11T15:12:31.357Z,31.30
2023-03-11T15:15:34.798Z,31.46
2023-03-11T15:18:38.653Z,31.05
2023-03-11T15:21:47.565Z,31.37
2023-03-11T15:24:59.358Z,32.44
2023-03-11T15:28:33.017Z,33.94
2023-03-11T15:31:38.043Z,33.39
2023-03-11T15:34:41.721Z,33.19
2023-03-11T15:37:46.222Z,33.55
2023-03-11T15:41:13.458Z,33.18
2023-03-11T15:44:26.392Z,33.42
2023-03-11T15:47:29.689Z,33.66
2023-03-11T15:50:50.584Z,34.08
2023-03-11T15:53:55.181Z,34.21
2023-03-11T15:57:04.691Z,34.13
2023-03-11T16:00:22.786Z,34.00
2023-03-11T16:03:25.913Z,34.53
2023-03-11T16:06:29.285Z,34.93
2023-03-11T16:09:34.650Z,34.71
2023-03-11T16:12:38.045Z,35.25
2023-03-11T16:15:42.373Z,35.41
2023-03-11T16:18:45.470Z,35.94
2023-03-11T16:21:50.812Z,35.20
2023-03-11T16:24:54.348Z,35.87
2023-03-11T16:27:59.826Z,35.35
2023-03-11T16:31:02.785Z,35.48
2023-03-11T16:34:05.772Z,35.70
2023-03-11T16:37:14.298Z,35.75
2023-03-11T16:40:25.535Z,36.42
2023-03-11T16:43:31.604Z,36.86
2023-03-11T16:46:34.772Z,36.65
2023-03-11T16:49:37.695Z,36.33
2023-03-11T16:52:40.429Z,36.39
2023-03-11T16:55:45.769Z,36.31
2023-03-11T16:58:49.574Z,36.04
2023-03-11T17:01:52.842Z,35.98
2023-03-11T17:04:56.378Z,36.33
2023-03-11T17:08:04.476Z,36.18
2023-03-11T17:11:18.394Z,35.94
2023-03-11T17:14:24.648Z,36.19
2023-03-11T17:17:28.115Z,36.42
2023-03-11T17:20:32.163Z,36.56
2023-03-11T17:23:35.833Z,37.21
2023-03-11T17:26:39.317Z,37.71
2023-03-11T17:29:43.049Z,38.03
2023-03-11T17:32:46.307Z,39.10
2023-03-11T17:35:49.759Z,39.63
2023-03-11T17:38:55.616Z,39.52
2023-03-11T17:41:59.236Z,40.04
2023-03-11T17:45:02.541Z,40.09
2023-03-11T17:48:06.698Z,40.88
2023-03-11T17:51:17.246Z,40.41
2023-03-11T17:54:21.016Z,40.68
2023-03-11T17:57:24.102Z,40.22
2023-03-11T18:00:27.564Z,40.58
2023-03-11T18:03:31.099Z,39.97
2023-03-11T18:06:34.581Z,40.17
2023-03-11T18:09:38.567Z,40.03
2023-03-11T18:12:45.481Z,39.54
2023-03-11T18:16:09.634Z,39.97
2023-03-11T18:19:13.011Z,39.68
2023-03-11T18:22:16.323Z,39.39
2023-03-11T18:25:20.278Z,39.95
2023-03-11T18:28:23.599Z,40.04
2023-03-11T18:31:29.173Z,40.12
2023-03-11T18:34:33.675Z,39.91
2023-03-11T18:37:37.218Z,40.29
2023-03-11T18:40:40.495Z,40.36
2023-03-11T18:43:44.043Z,40.18
2023-03-11T18:46:48.631Z,39.99
2023-03-11T18:49:52.408Z,40.74
2023-03-11T18:52:56.575Z,39.99
2023-03-11T18:56:04.089Z,40.65
2023-03-11T18:59:09.198Z,40.99
2023-03-11T19:02:12.925Z,41.20
2023-03-11T19:05:16.930Z,41.15
2023-03-11T19:08:21.577Z,41.59
2023-03-11T19:11:26.586Z,41.78
2023-03-11T19:14:31.404Z,41.77
2023-03-11T19:17:36.339Z,41.80
2023-03-11T19:20:40.370Z,42.24
2023-03-11T19:23:45.343Z,42.15
2023-03-11T19:26:48.840Z,42.60
2023-03-11T19:29:52.371Z,42.73
2023-03-11T19:32:56.022Z,43.11
2023-03-11T19:36:03.966Z,43.01
2023-03-11T19:39:07.903Z,43.50
2023-03-11T19:42:11.715Z,43.72
2023-03-11T19:45:15.139Z,44.12
2023-03-11T19:48:20.858Z,44.35
2023-03-11T19:51:28.481Z,44.26
2023-03-11T19:54:34.523Z,44.66
2023-03-11T19:57:38.918Z,45.67
2023-03-11T20:00:44.611Z,45.69
2023-03-11T20:03:48.371Z,45.50
2023-03-11T20:06:52.054Z,45.74
2023-03-11T20:09:55.579Z,46.41
2023-03-11T20:13:02.438Z,46.61
2023-03-11T20:16:09.421Z,46.65
2023-03-11T20:19:14.623Z,46.81
2023-03-11T20:22:20.485Z,47.26
2023-03-11T20:25:25.684Z,47.28
2023-03-11T20:28:30.025Z,47.67
2023-03-11T20:31:38.206Z,48.09
2023-03-11T20:34:42.228Z,47.75
2023-03-11T20:37:46.395Z,48.18
2023-03-11T20:40:56.775Z,48.50
2023-03-11T20:44:04.631Z,48.39
2023-03-11T20:47:08.240Z,48.39
2023-03-11T20:50:13.458Z,48.73
2023-03-11T20:53:17.326Z,48.62
2023-03-11T20:56:23.997Z,49.04
2023-03-11T20:59:27.572Z,49.39
2023-03-11T21:02:34.893Z,49.15
2023-03-11T21:05:38.951Z,49.09
2023-03-11T21:08:45.680Z,49.31
2023-03-11T21:11:49.581Z,49.45
2023-03-11T21:14:52.675Z,50.29
2023-03-11T21:17:57.812Z,49.90
2023-03-11T21:21:01.127Z,49.86
2023-03-11T21:24:04.640Z,49.75
2023-03-11T21:27:07.604Z,50.43
2023-03-11T21:30:11.838Z,50.21
2023-03-11T21:33:14.698Z,50.20
2023-03-11T21:36:18.148Z,49.67
2023-03-11T21:39:22.021Z,49.81
2023-03-11T21:42:29.328Z,49.74
2023-03-11T21:45:31.975Z,49.99
2023-03-11T21:48:38.347Z,49.98
2023-03-11T21:51:41.157Z,49.49
2023-03-11T21:54:44.003Z,49.70
2023-03-11T21:57:47.961Z,49.12
2023-03-11T22:00:50.936Z,49.65
2023-03-11T22:03:53.778Z,49.54
2023-03-11T22:06:57.552Z,49.64
2023-03-11T22:10:00.316Z,49.35
2023-03-11T22:13:04.051Z,48.67
2023-03-11T22:16:07.426Z,49.09
2023-03-11T22:19:11.499Z,49.35
2023-03-11T22:22:14.151Z,48.76
2023-03-11T22:25:16.819Z,49.03
2023-03-11T22:28:19.414Z,48.62
2023-03-11T22:31:23.503Z,48.63
2023-03-11T22:34:26.167Z,48.84
2023-03-11T22:37:28.728Z,48.63
2023-03-11T22:40:31.479Z,48.56
2023-03-11T22:43:36.925Z,48.54
2023-03-11T22:46:39.737Z,49.33
2023-03-11T22:49:42.741Z,49.52
2023-03-11T22:52:45.796Z,49.41
2023-03-11T22:55:49.501Z,48.97
2023-03-11T22:58:52.540Z,49.23
2023-03-11T23:01:55.455Z,49.95
2023-03-11T23:04:58.063Z,50.04
2023-03-11T23:08:00.778Z,49.69
2023-03-11T23:11:06.190Z,50.36
2023-03-11T23:14:08.878Z,50.30
2023-03-11T23:17:11.554Z,50.49
2023-03-11T23:20:15.911Z,50.91
2023-03-11T23:23:18.976Z,51.03
2023-03-11T23:26:22.552Z,51.32
2023-03-11T23:29:25.453Z,51.66
2023-03-11T23:32:28.571Z,51.27
2023-03-11T23:35:32.194Z,52.21
2023-03-11T23:38:36.036Z,51.74
2023-03-11T23:41:39.179Z,51.29
2023-03-11T23:44:41.744Z,51.00
2023-03-11T23:47:44.611Z,50.91
2023-03-11T23:50:48.850Z,51.13
2023-03-11T23:53:51.919Z,50.62
2023-03-11T23:56:54.512Z,50.25
2023-03-11T23:59:57.195Z,50.21
